• Join FlightAware (Why Join?)
  • Login
  • US Flag 
03:12AM EDT


 

Airport Tracker/Info


-or-


 

Live Flight TrackerFlight Track Log ✈ KAP35 ✈ 19-Jun-2013 ✈ KSLK - KBOS

Flight Track Log - Related Links

Times and Time Zones

All times are in EDT time to prevent confusion due to time zone crossing. See the KAP35 flight status page for this flight to view local times or setup timezone preferences in your user account.

Time Position Orientation Groundspeed Altitude Reporting Facility
EDT Latitude Longitude Course Direction KTS MPH feet Rate Location/Type
11:18AM 44.3461 -74.0308 139° Southeast 168 193 5,800  Level Boston Center
11:19AM 44.3194 -73.9983 139° Southeast 153 176 6,700 720 Climbing Boston Center
11:20AM 44.2931 -73.9628 136° Southeast 138 159 7,300 660 Climbing Boston Center
11:21AM 44.2683 -73.9244 132° Southeast 132 152 8,100 720 Climbing Boston Center
11:22AM 44.2461 -73.8833 127° Southeast 132 152 8,800 600 Climbing Boston Center
11:23AM 44.2217 -73.8392 128° Southeast 132 152 9,300 540 Climbing Boston Center
11:24AM 44.1950 -73.7953 130° Southeast 149 171 9,900 540 Climbing Boston Center
11:25AM 44.1642 -73.7481 132° Southeast 167 192 10,400 600 Climbing Boston Center
11:26AM 44.1378 -73.7042 130° Southeast 167 192 11,100 540 Climbing Boston Center
11:27AM 44.1069 -73.6544 131° Southeast 167 192 11,500 240 Climbing Boston Center
11:28AM 44.0742 -73.6047 133° Southeast 172 198 11,600  Climbing Boston Center
11:29AM 44.0331 -73.5403 132° Southeast 189 217 11,500  Descending Boston Center
11:30AM 44.0003 -73.4847 129° Southeast 189 217 11,600  Climbing Boston Center
11:31AM 43.9694 -73.4325 129° Southeast 184 212 11,600  Level Boston Center
11:32AM 43.9325 -73.3769 133° Southeast 189 217 11,600  Level Boston Center
11:33AM 43.8975 -73.3217 131° Southeast 189 217 11,600 -60 Level Boston Center
11:34AM 43.8625 -73.2664 131° Southeast 189 217 11,500 -60 Descending Boston Center
11:35AM 43.8253 -73.2142 135° Southeast 189 217 11,500  Level Boston Center
11:36AM 43.7903 -73.1592 131° Southeast 194 223 11,500  Level Boston Center
11:37AM 43.7553 -73.1042 131° Southeast 194 223 11,500  Level Boston Center
11:38AM 43.7242 -73.0550 131° Southeast 194 223 11,500  Level Boston Center
11:39AM 43.6911 -73.0000 130° Southeast 189 217 11,500  Level Boston Center
11:40AM 43.6539 -72.9367 129° Southeast 189 217 11,500  Level Boston Center
11:41AM 43.6250 -72.8961 135° Southeast 189 217 11,500  Level Boston Center
11:42AM 43.5814 -72.8328 134° Southeast 189 217 11,500  Level Boston Center
11:43AM 43.5442 -72.7781 133° Southeast 189 217 11,500  Level Boston Center
11:44AM 43.5086 -72.7264 133° Southeast 189 217 11,600  Climbing Boston Center
11:45AM 43.4756 -72.6689 128° Southeast 189 217 11,600  Level Boston Center
11:46AM 43.4422 -72.6144 130° Southeast 189 217 11,600  Level Boston Center
11:47AM 43.4089 -72.5631 132° Southeast 189 217 11,600  Level Boston Center
11:48AM 43.3736 -72.5086 132° Southeast 189 217 11,600 -60 Level Boston Center
11:49AM 43.3383 -72.4544 132° Southeast 189 217 11,500 -360 Descending Boston Center
11:50AM 43.2986 -72.3972 134° Southeast 189 217 10,900 -600 Descending Boston Center
11:51AM 43.2589 -72.3375 132° Southeast 199 229 10,300 -600 Descending Boston Center
11:52AM 43.2194 -72.2778 132° Southeast 204 235 9,700 -600 Descending Boston Center
11:53AM 43.1839 -72.2181 129° Southeast 209 241 9,100 -660 Descending Boston Center
11:54AM 43.1442 -72.1556 131° Southeast 209 241 8,400 -660 Descending Boston Center
11:56AM 43.0981 -72.0847 132° Southeast 204 235 7,700 -600 Descending Boston Center
11:57AM 43.0644 -72.0367 134° Southeast 199 229 7,200 -600 Descending Boston Center
11:58AM 43.0289 -71.9714 127° Southeast 193 222 6,500 -540 Descending Boston Center
11:59AM 42.9994 -71.9319 136° Southeast 188 216 6,200 -480 Descending Boston Center
12:00PM 42.9575 -71.8728 134° Southeast 183 211 5,600 -480 Descending Boston Center
12:01PM 42.9322 -71.8306 129° Southeast 183 211 5,300 -360 Descending Boston Center
12:02PM 42.8922 -71.7683 131° Southeast 188 216 4,900 -420 Descending Boston Center
12:03PM 42.8586 -71.7264 138° Southeast 182 209 4,500 -180 Descending Boston Center
12:04PM 42.8314 -71.6814 130° Southeast 172 198 4,600 -60 Climbing Boston Center
12:05PM 42.7956 -71.6308 134° Southeast 172 198 4,400 -60 Descending Boston Center
12:06PM 42.7619 -71.5803 132° Southeast 161 185 4,500  Climbing Boston Center
12:07PM 42.7367 -71.5411 131° Southeast 161 185 4,500  Level Boston Center
12:08PM 42.7092 -71.5019 134° Southeast 161 185 4,600  Climbing Boston Center
12:09PM 42.6733 -71.4517 134° Southeast 161 185 4,600 -60 Level Boston Center
12:10PM 42.6375 -71.4044 136° Southeast 161 185 4,500 -60 Descending Boston Center
12:11PM 42.6000 -71.3333 126° Southeast 159 183 4,500  Level KA90
12:12PM 42.5667 -71.3000 144° Southeast 160 184 4,600  Climbing KA90
12:13PM 42.5333 -71.2667 144° Southeast 163 188 4,500 -60 Descending KA90
12:14PM 42.4833 -71.2333 154° Southeast 166 191 4,500  Level KA90
12:15PM 42.4500 -71.2000 144° Southeast 163 188 4,600  Climbing KA90
12:16PM 42.4000 -71.1833 166° South 167 192 4,600 -300 Level KA90
12:17PM 42.3667 -71.1500 144° Southeast 153 176 4,000 -900 Descending KA90
12:18PM 42.3333 -71.1167 144° Southeast 146 168 2,900 -1,140 Descending KA90
12:19PM 42.3167 -71.0833 124° Southeast 116 133 1,800 -1,020 Descending KA90
12:20PM 42.3333 -71.0333 66° East 112 129 900 -900 Descending KA90
12:22PM 42.3500 -71.0000 137° Southeast  Level FlightAware Approximate
12:29PM 42.3630 -71.0064 137° Southeast  Level Estimated
12:30PM 42.3630 -71.0064 137° Southeast  Level Estimated